»·PEaware :: N629J KBUR-KLAS

N629J :: KBUR-KLAS

FLIGHT INFORMATION

Flight Status: Arrived
Operator: Privately registered:
United States
More flights under this callsign
Pilot: Thiago S. (19132)
Aircraft: BEECH AIRCRAFT A90-E90 KING AIR
(BE9L)
More flights by this aircraft type
Origin: KBUR Bob Hope-Burbank
United States
Destination: KLAS McCarran Intl
United States
More flights between these airports :: More routes between these airports
Route: +VNY3 DAG CRESO4
File this flight plan on PilotEdge
Remarks: I RATING 5
Altitude:
(Current/Filed)
190,000ft
Speed:
(Current/Filed)
200kts
Departed: 18-Feb-19 04:05 PM
Arrived: 18-Feb-19 05:11 PM
Distance/Time
Traveled:
194nm/1:05
Distance/Time
To Go:
Arrived

Flight Plot

Page will automatically refresh every two minutes.

Flight plan parsing failed; only flown route is shown


Map Options




Map Legend


Flown Route
Filed Route
Departure Airport
Arrival Airport
Navaid (VOR, NDB)
Fix

Horizontal Profiles

Position Reports

Time Latitude Longitude Heading Altitude Ground
Speed
18-Feb-19 15:38 34.200238 -118.363602 0 726ft 0kts
18-Feb-19 15:39 34.200238 -118.363602 0 726ft 0kts
18-Feb-19 15:40 34.200238 -118.363602 0 726ft 0kts
18-Feb-19 15:41 34.200238 -118.363602 0 726ft 0kts
18-Feb-19 15:43 34.200238 -118.363602 0 726ft 0kts
18-Feb-19 15:44 34.200239 -118.363602 0 726ft 0kts
18-Feb-19 15:45 34.200242 -118.363602 0 726ft 0kts
18-Feb-19 15:46 34.200247 -118.363602 0 726ft 0kts
18-Feb-19 15:47 34.200250 -118.363602 0 726ft 0kts
18-Feb-19 15:48 34.200254 -118.363602 0 726ft 0kts
18-Feb-19 15:49 34.200258 -118.363601 0 726ft 0kts
18-Feb-19 15:50 34.200262 -118.363601 0 726ft 0kts
18-Feb-19 15:51 34.200266 -118.363601 0 726ft 0kts
18-Feb-19 15:52 34.200270 -118.363601 0 726ft 0kts
18-Feb-19 15:53 34.200273 -118.363601 0 726ft 0kts
18-Feb-19 15:54 34.200277 -118.363601 0 726ft 0kts
18-Feb-19 15:55 34.200348 -118.363702 251 726ft 0kts
18-Feb-19 15:56 34.199918 -118.363910 265 726ft 5kts
18-Feb-19 15:57 34.199067 -118.364496 157 726ft 2kts
18-Feb-19 15:58 34.198962 -118.360301 89 726ft 22kts
18-Feb-19 15:59 34.198437 -118.357965 179 726ft 0kts
18-Feb-19 16:00 34.196671 -118.357869 133 726ft 13kts
18-Feb-19 16:01 34.194111 -118.356353 146 726ft 7kts
18-Feb-19 16:01 34.193935 -118.356082 101 726ft 0kts
18-Feb-19 16:03 34.193934 -118.356080 101 726ft 0kts
18-Feb-19 16:04 34.193987 -118.355516 43 726ft 9kts
18-Feb-19 16:04 34.209477 -118.359560 349 1150ft 111kts
18-Feb-19 16:05 34.227198 -118.389093 288 2795ft 122kts
18-Feb-19 16:07 34.241227 -118.436989 306 4531ft 150kts
18-Feb-19 16:08 34.276339 -118.457161 351 6237ft 142kts
18-Feb-19 16:08 34.308705 -118.463673 351 7475ft 140kts
18-Feb-19 16:09 34.346840 -118.468660 3 8945ft 133kts
18-Feb-19 16:10 34.380142 -118.454618 35 10325ft 133kts
18-Feb-19 16:11 34.409674 -118.421509 43 11394ft 153kts
18-Feb-19 16:12 34.437657 -118.379909 51 12411ft 165kts
18-Feb-19 16:13 34.463962 -118.331606 51 13428ft 175kts
18-Feb-19 16:14 34.493330 -118.283502 45 14438ft 178kts
18-Feb-19 16:15 34.523399 -118.237518 44 15451ft 171kts
18-Feb-19 16:16 34.551739 -118.191616 44 16448ft 168kts
18-Feb-19 16:17 34.579738 -118.146712 43 17432ft 164kts
18-Feb-19 16:18 34.607009 -118.103019 42 18419ft 162kts
18-Feb-19 16:19 34.635062 -118.057859 42 19098ft 179kts
18-Feb-19 16:20 34.647862 -117.993390 95 19100ft 236kts
18-Feb-19 16:22 34.651520 -117.905083 71 19095ft 228kts
18-Feb-19 16:22 34.656809 -117.840642 76 19075ft 229kts
18-Feb-19 16:23 34.666398 -117.764625 70 19067ft 225kts
18-Feb-19 16:24 34.681259 -117.690929 69 19063ft 225kts
18-Feb-19 16:25 34.695208 -117.616879 70 19060ft 225kts
18-Feb-19 16:26 34.707577 -117.542147 73 19058ft 227kts
18-Feb-19 16:27 34.718677 -117.466315 73 19056ft 227kts
18-Feb-19 16:28 34.729769 -117.390726 73 19054ft 228kts
18-Feb-19 16:29 34.742404 -117.315182 65 19053ft 225kts
18-Feb-19 16:30 34.763735 -117.243821 63 19047ft 224kts
18-Feb-19 16:31 34.786482 -117.173295 60 19046ft 223kts
18-Feb-19 16:32 34.811448 -117.103854 60 19047ft 223kts
18-Feb-19 16:33 34.836426 -117.034450 60 19050ft 224kts
18-Feb-19 16:34 34.861658 -116.965135 58 19059ft 223kts
18-Feb-19 16:35 34.885613 -116.894796 67 19062ft 227kts
18-Feb-19 16:36 34.901296 -116.819702 68 19062ft 229kts
18-Feb-19 16:37 34.920514 -116.745737 66 19063ft 228kts
18-Feb-19 16:38 34.938925 -116.671549 67 19062ft 229kts
18-Feb-19 16:39 34.957732 -116.597299 67 19062ft 229kts
18-Feb-19 16:40 34.983794 -116.528010 51 19061ft 223kts
18-Feb-19 16:41 35.013441 -116.460694 55 19060ft 224kts
18-Feb-19 16:42 35.042987 -116.393313 56 19062ft 224kts
18-Feb-19 16:43 35.072494 -116.326052 56 19064ft 224kts
18-Feb-19 16:44 35.101676 -116.258887 56 19059ft 224kts
18-Feb-19 16:45 35.130738 -116.191727 56 19059ft 224kts
18-Feb-19 16:46 35.161960 -116.120609 58 18075ft 246kts
18-Feb-19 16:47 35.194390 -116.046211 58 17085ft 248kts
18-Feb-19 16:48 35.226529 -115.971388 58 16088ft 247kts
18-Feb-19 16:49 35.258785 -115.897446 58 15087ft 245kts
18-Feb-19 16:50 35.289298 -115.823153 67 14089ft 248kts
18-Feb-19 16:51 35.308604 -115.745755 41 13114ft 231kts
18-Feb-19 16:52 35.356484 -115.695514 36 12043ft 226kts
18-Feb-19 16:53 35.405908 -115.647560 31 10813ft 225kts
18-Feb-19 16:54 35.455815 -115.604312 33 10098ft 215kts
18-Feb-19 16:55 35.497934 -115.555782 44 10032ft 202kts
18-Feb-19 16:56 35.532026 -115.501500 49 10031ft 200kts
18-Feb-19 16:57 35.565146 -115.446673 46 10033ft 199kts
18-Feb-19 16:58 35.601518 -115.395947 41 10031ft 197kts
18-Feb-19 16:59 35.640397 -115.348274 40 10031ft 197kts
18-Feb-19 17:00 35.678379 -115.299691 43 10028ft 198kts
18-Feb-19 17:01 35.714897 -115.248605 34 9936ft 198kts
18-Feb-19 17:02 35.770783 -115.246596 352 8544ft 210kts
18-Feb-19 17:03 35.827609 -115.254261 352 7275ft 210kts
18-Feb-19 17:04 35.879471 -115.260784 354 7029ft 167kts
18-Feb-19 17:05 35.922898 -115.256994 8 7022ft 151kts
18-Feb-19 17:06 35.963550 -115.234995 17 6195ft 161kts
18-Feb-19 17:07 36.001473 -115.209087 21 4704ft 150kts
18-Feb-19 17:08 36.035987 -115.191616 17 3286ft 124kts
18-Feb-19 17:09 36.066844 -115.175068 19 2494ft 126kts
18-Feb-19 17:10 36.088414 -115.162710 27 2187ft 17kts
18-Feb-19 17:11 36.089345 -115.163322 294 2187ft 0kts
18-Feb-19 17:12 36.089514 -115.163788 295 2187ft 9kts
18-Feb-19 17:13 36.092361 -115.162982 24 2187ft 14kts
18-Feb-19 17:14 36.096076 -115.160861 25 2187ft 14kts
18-Feb-19 17:15 36.099029 -115.159184 23 2187ft 8kts
18-Feb-19 17:16 36.098481 -115.160238 206 2187ft 5kts
18-Feb-19 17:17 36.098520 -115.161644 347 2187ft 0kts
18-Feb-19 17:18 36.098589 -115.161653 0 2187ft 0kts
18-Feb-19 17:19 36.098589 -115.161653 0 2187ft 0kts
18-Feb-19 17:20 36.098589 -115.161653 0 2187ft 0kts
18-Feb-19 17:21 36.098589 -115.161653 0 2187ft 0kts
18-Feb-19 17:22 36.098589 -115.161653 0 2187ft 0kts
18-Feb-19 17:23 36.098589 -115.161653 0 2187ft 0kts
18-Feb-19 17:24 36.098589 -115.161653 0 2187ft 0kts

Navigation Log

Ident Type
Flight plan parsing failed, navigation log unavailable